createdAt,value
2023-05-19T00:00:35.320Z,45.200000
2023-05-19T00:05:17.226Z,46.533333
2023-05-19T00:10:19.309Z,47.466667
2023-05-19T00:15:21.599Z,48.733333
2023-05-19T00:20:23.641Z,48.714286
2023-05-19T00:25:25.791Z,47.066667
2023-05-19T00:30:27.817Z,47.200000
2023-05-19T00:35:29.899Z,47.533333
2023-05-19T00:40:32.435Z,47.733333
2023-05-19T00:45:34.322Z,47.466667
2023-05-19T00:50:15.997Z,48.000000
2023-05-19T00:55:18.496Z,46.333333
2023-05-19T01:00:20.583Z,46.466667
2023-05-19T01:05:22.375Z,46.071429
2023-05-19T01:10:24.581Z,46.800000
2023-05-19T01:15:26.637Z,47.200000
2023-05-19T01:20:28.539Z,47.133333
2023-05-19T01:25:30.607Z,47.866667
2023-05-19T01:30:33.064Z,47.866667
2023-05-19T01:35:34.798Z,47.800000
2023-05-19T01:40:16.488Z,47.933333
2023-05-19T01:45:18.459Z,48.400000
2023-05-19T01:50:20.619Z,49.466667
2023-05-19T01:55:23.573Z,49.357143
2023-05-19T02:00:25.718Z,48.866667
2023-05-19T02:05:28.029Z,46.733333
2023-05-19T02:10:30.045Z,46.400000
2023-05-19T02:15:32.171Z,47.133333
2023-05-19T02:20:34.370Z,46.200000
2023-05-19T02:25:16.045Z,49.200000
2023-05-19T02:30:18.460Z,50.866667
2023-05-19T02:35:20.437Z,52.866667
2023-05-19T02:40:22.354Z,52.928571
2023-05-19T02:45:24.506Z,50.933333
2023-05-19T02:50:26.942Z,51.266667
2023-05-19T02:55:28.941Z,50.866667
2023-05-19T03:00:31.161Z,51.733333
2023-05-19T03:05:33.073Z,52.533333
2023-05-19T03:10:35.046Z,52.533333
2023-05-19T03:15:16.892Z,52.533333
2023-05-19T03:20:19.245Z,50.800000
2023-05-19T03:25:21.120Z,47.400000
2023-05-19T03:30:22.928Z,47.142857
2023-05-19T03:35:25.312Z,47.133333
2023-05-19T03:40:27.363Z,47.866667
2023-05-19T03:45:29.388Z,49.066667
2023-05-19T03:50:31.696Z,49.733333
2023-05-19T03:55:33.493Z,49.866667
2023-05-19T04:00:35.763Z,49.066667
2023-05-19T04:05:17.329Z,49.133333
2023-05-19T04:10:19.351Z,50.933333
2023-05-19T04:15:21.332Z,49.266667
2023-05-19T04:20:23.491Z,48.285714
2023-05-19T04:25:25.375Z,46.200000
2023-05-19T04:30:27.330Z,47.666667
2023-05-19T04:35:29.207Z,47.333333
2023-05-19T04:40:31.735Z,47.600000
2023-05-19T04:45:34.126Z,48.000000
2023-05-19T04:50:35.581Z,48.066667
2023-05-19T04:55:17.439Z,48.200000
2023-05-19T05:00:19.604Z,50.200000
2023-05-19T05:05:21.607Z,50.800000
2023-05-19T05:10:23.778Z,49.928571
2023-05-19T05:15:25.780Z,49.200000
2023-05-19T05:20:27.834Z,51.000000
2023-05-19T05:25:29.730Z,52.466667
2023-05-19T05:30:31.742Z,52.733333
2023-05-19T05:35:33.803Z,52.466667
2023-05-19T05:40:35.475Z,50.000000
2023-05-19T05:45:17.198Z,48.000000
2023-05-19T05:50:19.616Z,47.533333
2023-05-19T05:55:21.877Z,47.933333
2023-05-19T06:00:24.055Z,48.714286
2023-05-19T06:05:26.852Z,48.933333
2023-05-19T06:10:28.667Z,49.066667
2023-05-19T06:15:30.724Z,48.800000
2023-05-19T06:20:32.890Z,49.200000
2023-05-19T06:25:34.848Z,47.600000
2023-05-19T06:30:16.265Z,47.000000
2023-05-19T06:35:18.248Z,47.000000
2023-05-19T06:40:20.413Z,47.133333
2023-05-19T06:45:22.437Z,47.857143
2023-05-19T06:50:24.762Z,48.266667
2023-05-19T06:55:27.816Z,48.000000
2023-05-19T07:00:28.527Z,48.000000
2023-05-19T07:05:30.743Z,48.200000
2023-05-19T07:10:32.861Z,48.733333
2023-05-19T07:15:35.417Z,49.000000
2023-05-19T07:20:17.018Z,49.000000
2023-05-19T07:25:19.305Z,49.466667
2023-05-19T07:30:21.667Z,50.400000
2023-05-19T07:35:23.213Z,49.571429
2023-05-19T07:40:25.334Z,48.400000
2023-05-19T07:45:27.214Z,46.600000
2023-05-19T07:50:29.129Z,45.266667
2023-05-19T07:55:31.157Z,49.866667
2023-05-19T08:00:33.456Z,56.200000
2023-05-19T08:05:35.382Z,55.400000
2023-05-19T08:10:17.077Z,54.466667
2023-05-19T08:15:19.065Z,49.933333
2023-05-19T08:20:21.543Z,47.200000
2023-05-19T08:25:23.440Z,47.428571
2023-05-19T08:30:25.689Z,49.266667
2023-05-19T08:35:27.616Z,50.000000
2023-05-19T08:40:29.680Z,48.000000
2023-05-19T08:45:32.179Z,47.400000
2023-05-19T08:50:34.039Z,47.333333
2023-05-19T08:55:15.706Z,48.000000
2023-05-19T09:00:17.688Z,47.466667
2023-05-19T09:05:20.042Z,47.600000
2023-05-19T09:10:22.252Z,47.071429
2023-05-19T09:15:24.220Z,46.466667
2023-05-19T09:20:26.344Z,46.666667
2023-05-19T09:25:28.326Z,45.600000
2023-05-19T09:30:30.431Z,45.866667
2023-05-19T09:35:32.676Z,45.866667
2023-05-19T09:40:34.427Z,44.733333
2023-05-19T09:45:16.100Z,45.133333
2023-05-19T09:50:18.127Z,45.000000
2023-05-19T09:55:20.368Z,45.000000
2023-05-19T10:00:22.380Z,45.928571
2023-05-19T10:05:24.268Z,46.000000
2023-05-19T10:10:26.378Z,46.266667
2023-05-19T10:15:28.640Z,46.866667
2023-05-19T10:20:30.911Z,47.133333
2023-05-19T10:25:32.751Z,47.933333
2023-05-19T10:30:34.765Z,48.133333
2023-05-19T10:35:16.742Z,48.666667
2023-05-19T10:40:18.981Z,49.200000
2023-05-19T10:45:20.862Z,50.000000
2023-05-19T10:50:22.755Z,50.285714
2023-05-19T10:55:24.930Z,51.000000
2023-05-19T11:00:27.196Z,51.000000
2023-05-19T11:05:29.570Z,51.200000
2023-05-19T11:10:31.616Z,51.000000
2023-05-19T11:15:34.214Z,51.266667
2023-05-19T11:20:15.763Z,51.200000
2023-05-19T11:25:18.042Z,51.466667
2023-05-19T11:30:19.809Z,51.800000
2023-05-19T11:35:22.149Z,51.928571
2023-05-19T11:40:24.307Z,51.733333
2023-05-19T11:45:26.279Z,52.200000
2023-05-19T11:50:28.157Z,52.600000
2023-05-19T11:55:30.320Z,52.600000
2023-05-19T12:00:32.831Z,53.266667
2023-05-19T12:05:37.980Z,53.400000
2023-05-19T12:10:17.870Z,53.000000
2023-05-19T12:15:18.938Z,52.933333
2023-05-19T12:20:21.022Z,52.800000
2023-05-19T12:25:22.896Z,53.571429
2023-05-19T12:30:25.024Z,53.866667
2023-05-19T12:35:27.782Z,53.200000
2023-05-19T12:40:29.183Z,53.000000
2023-05-19T12:45:31.102Z,52.733333
2023-05-19T12:50:33.619Z,52.133333
2023-05-19T12:55:35.478Z,51.600000
2023-05-19T13:00:17.456Z,50.733333
2023-05-19T13:05:19.596Z,50.866667
2023-05-19T13:10:21.535Z,50.533333
2023-05-19T13:15:23.877Z,50.428571
2023-05-19T13:20:28.237Z,53.800000
2023-05-19T13:25:27.890Z,55.266667
2023-05-19T13:30:29.799Z,55.600000
2023-05-19T13:35:32.023Z,55.200000
2023-05-19T13:40:33.906Z,55.933333
2023-05-19T13:45:15.781Z,63.066667
2023-05-19T13:50:18.022Z,65.533333
2023-05-19T13:55:20.396Z,65.933333
2023-05-19T14:00:23.066Z,66.000000
2023-05-19T14:05:25.150Z,65.733333
2023-05-19T14:10:27.120Z,65.466667
2023-05-19T14:15:29.528Z,64.600000
2023-05-19T14:20:31.028Z,58.600000
2023-05-19T14:25:33.471Z,58.933333
2023-05-19T14:30:35.574Z,57.400000
2023-05-19T14:35:17.275Z,59.400000
2023-05-19T14:40:19.911Z,53.800000
2023-05-19T14:45:21.895Z,51.000000
2023-05-19T14:50:24.057Z,50.500000
2023-05-19T14:55:26.162Z,45.866667
2023-05-19T15:00:28.452Z,45.000000
2023-05-19T15:05:30.345Z,44.066667
2023-05-19T15:10:32.596Z,43.266667
2023-05-19T15:15:34.627Z,42.866667
2023-05-19T15:20:16.261Z,42.466667
2023-05-19T15:25:18.261Z,42.400000
2023-05-19T15:30:20.248Z,42.400000
2023-05-19T15:35:22.414Z,44.642857
2023-05-19T15:40:24.894Z,45.466667
2023-05-19T15:45:26.607Z,47.000000
2023-05-19T15:50:28.687Z,48.333333
2023-05-19T15:55:31.071Z,48.333333
2023-05-19T16:00:33.181Z,50.000000
2023-05-19T16:05:34.954Z,49.466667
2023-05-19T16:10:16.602Z,47.200000
2023-05-19T16:15:18.587Z,45.333333
2023-05-19T16:20:21.038Z,46.800000
2023-05-19T16:25:23.027Z,43.285714
2023-05-19T16:30:25.162Z,45.266667
2023-05-19T16:35:28.191Z,45.466667
2023-05-19T16:40:30.983Z,45.266667
2023-05-19T16:45:31.657Z,46.266667
2023-05-19T16:50:33.894Z,45.000000
2023-05-19T16:55:35.648Z,43.066667
2023-05-19T17:00:17.516Z,42.266667
2023-05-19T17:05:19.373Z,38.466667
2023-05-19T17:10:21.399Z,35.933333
2023-05-19T17:15:23.379Z,38.714286
2023-05-19T17:20:25.279Z,38.400000
2023-05-19T17:25:27.613Z,38.733333
2023-05-19T17:30:29.882Z,38.666667
2023-05-19T17:35:31.990Z,37.666667
2023-05-19T17:40:34.095Z,38.400000
2023-05-19T17:45:15.971Z,37.866667
2023-05-19T17:50:18.460Z,37.466667
2023-05-19T17:55:20.352Z,37.066667
2023-05-19T18:00:22.280Z,37.142857
2023-05-19T18:05:24.286Z,39.466667
2023-05-19T18:10:26.455Z,36.066667
2023-05-19T18:15:28.637Z,38.133333
2023-05-19T18:20:30.556Z,37.666667
2023-05-19T18:25:32.335Z,36.133333
2023-05-19T18:30:34.747Z,35.866667
2023-05-19T18:35:16.095Z,35.800000
2023-05-19T18:40:18.014Z,35.933333
2023-05-19T18:45:19.950Z,34.800000
2023-05-19T18:50:22.015Z,35.200000
2023-05-19T18:55:24.419Z,34.142857
2023-05-19T19:00:26.352Z,32.933333
2023-05-19T19:05:28.605Z,32.800000
2023-05-19T19:10:30.794Z,32.866667
2023-05-19T19:15:32.825Z,32.333333
2023-05-19T19:20:35.258Z,32.133333
2023-05-19T19:25:16.817Z,31.533333
2023-05-19T19:30:18.880Z,31.000000
2023-05-19T19:35:20.793Z,31.933333
2023-05-19T19:40:22.778Z,30.785714
2023-05-19T19:45:24.938Z,30.933333
2023-05-19T19:50:26.825Z,31.333333
2023-05-19T19:55:28.738Z,32.733333
2023-05-19T20:00:30.952Z,32.266667
2023-05-19T20:05:32.895Z,32.600000
2023-05-19T20:10:35.377Z,30.866667
2023-05-19T20:15:16.954Z,31.733333
2023-05-19T20:20:19.288Z,33.066667
2023-05-19T20:25:21.304Z,31.400000
2023-05-19T20:30:23.217Z,31.142857
2023-05-19T20:35:25.695Z,30.866667
2023-05-19T20:40:27.874Z,29.866667
2023-05-19T20:45:29.878Z,29.600000
2023-05-19T20:50:32.210Z,30.000000
2023-05-19T20:55:34.274Z,29.533333
2023-05-19T21:00:15.850Z,29.733333
2023-05-19T21:05:17.864Z,30.466667
2023-05-19T21:10:20.037Z,31.933333
2023-05-19T21:15:21.818Z,31.466667
2023-05-19T21:20:24.033Z,30.714286
2023-05-19T21:25:26.011Z,29.866667
2023-05-19T21:30:27.953Z,29.533333
2023-05-19T21:35:30.402Z,31.466667
2023-05-19T21:40:32.804Z,31.200000
2023-05-19T21:45:34.731Z,32.733333
2023-05-19T21:50:16.664Z,33.400000
2023-05-19T21:55:18.729Z,33.133333
2023-05-19T22:00:20.807Z,33.066667
2023-05-19T22:05:22.600Z,32.714286
2023-05-19T22:10:24.790Z,33.400000
2023-05-19T22:15:26.970Z,33.200000
2023-05-19T22:20:28.858Z,33.800000
2023-05-19T22:25:31.136Z,33.533333
2023-05-19T22:30:33.380Z,33.000000
2023-05-19T22:35:35.184Z,33.133333
2023-05-19T22:40:17.868Z,32.666667
2023-05-19T22:45:20.527Z,33.066667
2023-05-19T22:50:22.659Z,32.571429
2023-05-19T22:55:24.936Z,32.933333
2023-05-19T23:00:26.919Z,32.133333
2023-05-19T23:05:29.166Z,32.133333
2023-05-19T23:10:31.177Z,31.533333
2023-05-19T23:15:33.580Z,31.933333
2023-05-19T23:20:16.620Z,31.533333
2023-05-19T23:25:17.684Z,31.800000
2023-05-19T23:30:19.689Z,31.266667
2023-05-19T23:35:21.677Z,31.642857
2023-05-19T23:40:24.513Z,32.000000
2023-05-19T23:45:26.858Z,31.466667
2023-05-19T23:50:29.088Z,31.200000
2023-05-19T23:55:31.289Z,31.666667
